Time;durP1;ratioP1;P1;durP2;ratioP2;P2;SDS_P1;SDS_P2;PMS_P1;PMS_P2;Temp;Humidity;BMP_temperature;BMP_pressure;BME280_temperature;BME280_humidity;BME280_pressure;Samples;Min_cycle;Max_cycle;Signal;HPM_P1;HPM_P2
2023/05/02 00:00:09;;;;;;;26.83;18.77;;;11.80;99.90;;;;;;7373213;19;20533;-60
2023/05/02 00:02:42;;;;;;;28.73;19.08;;;11.80;99.90;;;;;;7371175;19;20022;-60
2023/05/02 00:05:08;;;;;;;24.98;17.83;;;11.80;99.90;;;;;;7371949;19;20029;-60
2023/05/02 00:07:38;;;;;;;20.50;15.15;;;11.80;99.90;;;;;;7370349;19;20652;-60
2023/05/02 00:10:05;;;;;;;23.67;15.82;;;11.70;99.90;;;;;;7370536;19;20018;-62
2023/05/02 00:12:31;;;;;;;22.45;13.73;;;11.60;99.90;;;;;;7373306;19;20023;-62
2023/05/02 00:14:58;;;;;;;22.30;14.75;;;11.70;99.90;;;;;;7372407;19;20023;-62
2023/05/02 00:17:24;;;;;;;24.08;14.70;;;11.50;99.90;;;;;;7373823;19;20022;-63
2023/05/02 00:19:51;;;;;;;23.40;14.63;;;11.50;99.90;;;;;;7374799;19;20015;-62
2023/05/02 00:22:17;;;;;;;22.13;13.57;;;11.30;99.90;;;;;;7373556;19;20695;-60
2023/05/02 00:24:43;;;;;;;23.77;13.50;;;11.30;99.90;;;;;;7369894;19;20015;-60
2023/05/02 00:27:10;;;;;;;21.50;12.75;;;11.30;99.90;;;;;;7368975;19;20064;-62
2023/05/02 00:29:37;;;;;;;19.15;11.85;;;11.30;99.90;;;;;;7363152;19;20027;-60
2023/05/02 00:32:04;;;;;;;19.95;11.75;;;11.20;99.90;;;;;;7362730;19;20788;-60
2023/05/02 00:34:39;;;;;;;19.02;9.65;;;11.20;99.90;;;;;;7367868;19;20019;-60
2023/05/02 00:37:06;;;;;;;11.23;8.02;;;11.10;99.90;;;;;;7371405;19;20053;-60
2023/05/02 00:39:35;;;;;;;15.98;9.30;;;11.00;99.90;;;;;;7367957;19;20029;-62
2023/05/02 00:42:02;;;;;;;12.13;7.53;;;11.00;99.90;;;;;;7372812;19;20938;-62
2023/05/02 00:44:28;;;;;;;12.02;6.63;;;10.90;99.90;;;;;;7371150;19;21836;-62
2023/05/02 00:46:56;;;;;;;12.18;7.28;;;10.80;99.90;;;;;;7371147;19;20045;-62
2023/05/02 00:49:22;;;;;;;13.70;8.20;;;10.70;99.90;;;;;;7367636;19;20017;-63
2023/05/02 00:51:48;;;;;;;11.90;8.15;;;10.70;99.90;;;;;;7370865;19;20027;-63
2023/05/02 00:54:15;;;;;;;13.65;8.68;;;10.70;99.90;;;;;;7368027;19;20022;-60
2023/05/02 00:56:41;;;;;;;16.48;8.75;;;10.60;99.90;;;;;;7371379;19;20029;-60
2023/05/02 00:59:10;;;;;;;18.20;8.70;;;10.60;99.90;;;;;;7369514;19;20476;-60
2023/05/02 01:02:14;;;;;;;18.58;9.02;;;10.70;99.90;;;;;;7371190;19;20670;-60
2023/05/02 01:04:59;;;;;;;16.42;8.52;;;10.60;99.90;;;;;;7370152;19;20015;-60
2023/05/02 01:07:53;;;;;;;16.42;7.90;;;10.50;99.90;;;;;;7368681;19;20045;-60
2023/05/02 01:10:28;;;;;;;15.32;7.78;;;10.50;99.90;;;;;;7371066;19;20119;-60
2023/05/02 01:13:23;;;;;;;17.02;7.28;;;10.50;99.90;;;;;;7371117;19;20033;-61
2023/05/02 01:15:54;;;;;;;12.48;7.32;;;10.50;99.90;;;;;;7372184;19;20066;-61
2023/05/02 01:18:24;;;;;;;17.52;7.93;;;10.50;99.90;;;;;;7368763;19;20746;-61
2023/05/02 01:20:56;;;;;;;15.38;8.25;;;10.50;99.90;;;;;;7370755;19;20014;-62
2023/05/02 01:23:46;;;;;;;18.52;7.22;;;10.40;99.90;;;;;;7371099;19;20086;-60
2023/05/02 01:26:56;;;;;;;13.00;7.32;;;10.40;99.90;;;;;;7368164;19;20018;-62
2023/05/02 01:29:40;;;;;;;12.40;6.82;;;10.40;99.90;;;;;;7371751;19;20030;-62
2023/05/02 01:32:08;;;;;;;13.05;6.80;;;10.40;99.90;;;;;;7381355;19;20376;-62
2023/05/02 01:34:39;;;;;;;13.73;6.32;;;10.40;99.90;;;;;;7373054;19;20015;-62
2023/05/02 01:37:09;;;;;;;10.45;5.90;;;10.30;99.90;;;;;;7376078;19;20139;-61
2023/05/02 01:39:37;;;;;;;17.52;6.72;;;10.20;99.90;;;;;;7371254;19;20035;-61
2023/05/02 01:42:04;;;;;;;15.00;6.43;;;10.20;99.90;;;;;;7376600;19;20014;-60
2023/05/02 01:44:32;;;;;;;16.00;6.32;;;10.20;99.90;;;;;;7372644;19;20058;-62
2023/05/02 01:47:02;;;;;;;10.07;5.85;;;10.20;99.90;;;;;;7375423;19;20021;-60
2023/05/02 01:49:30;;;;;;;10.57;5.55;;;10.20;99.90;;;;;;7368231;19;20466;-62
2023/05/02 01:52:04;;;;;;;14.30;6.15;;;10.20;99.90;;;;;;7373469;19;20022;-62
2023/05/02 01:54:32;;;;;;;11.85;5.95;;;10.20;99.90;;;;;;7370290;19;20372;-61
2023/05/02 01:57:09;;;;;;;11.43;5.80;;;10.20;99.90;;;;;;7375027;19;20015;-61
2023/05/02 01:59:39;;;;;;;9.32;5.47;;;10.20;99.90;;;;;;7374362;19;20086;-61
2023/05/02 02:02:10;;;;;;;11.65;5.35;;;10.20;99.90;;;;;;7374889;19;20051;-62
2023/05/02 02:04:38;;;;;;;12.02;5.30;;;10.10;99.90;;;;;;7371000;19;20026;-61
2023/05/02 02:07:10;;;;;;;9.25;5.28;;;10.00;99.90;;;;;;7378918;19;20648;-62
2023/05/02 02:09:38;;;;;;;11.88;5.50;;;10.10;99.90;;;;;;7370536;19;20481;-60
2023/05/02 02:12:10;;;;;;;12.93;5.03;;;10.10;99.90;;;;;;7377129;19;20022;-61
2023/05/02 02:14:41;;;;;;;11.85;5.18;;;10.10;99.90;;;;;;7374755;19;20022;-63
2023/05/02 02:17:35;;;;;;;11.05;4.63;;;10.00;99.90;;;;;;7376491;19;20379;-62
2023/05/02 02:20:07;;;;;;;13.40;5.70;;;10.00;99.90;;;;;;7373897;19;20060;-62
2023/05/02 02:22:39;;;;;;;12.82;5.13;;;10.00;99.90;;;;;;7376745;19;20275;-62
2023/05/02 02:25:11;;;;;;;15.07;5.82;;;10.00;99.90;;;;;;7372112;19;20083;-62
2023/05/02 02:27:39;;;;;;;11.88;6.00;;;10.00;99.90;;;;;;7374830;19;20045;-62
2023/05/02 02:30:07;;;;;;;13.90;5.78;;;10.00;99.90;;;;;;7374052;19;20086;-62
2023/05/02 02:32:34;;;;;;;11.13;6.10;;;10.10;99.90;;;;;;7376139;19;20027;-62
2023/05/02 02:35:02;;;;;;;9.05;5.80;;;10.00;99.90;;;;;;7375059;19;20035;-60
2023/05/02 02:37:36;;;;;;;14.15;6.18;;;10.00;99.90;;;;;;7377663;19;20366;-60
2023/05/02 02:40:36;;;;;;;15.38;5.70;;;9.90;99.90;;;;;;7378824;19;20018;-60
2023/05/02 02:43:26;;;;;;;11.75;5.63;;;9.90;99.90;;;;;;7375356;19;20034;-60
2023/05/02 02:46:02;;;;;;;16.67;6.82;;;9.70;99.90;;;;;;7372326;19;20026;-62
2023/05/02 02:48:42;;;;;;;15.15;6.40;;;9.80;99.90;;;;;;7374160;19;20064;-62
2023/05/02 02:51:22;;;;;;;13.98;5.90;;;9.70;99.90;;;;;;7376889;19;20018;-62
2023/05/02 02:54:11;;;;;;;16.23;6.50;;;9.60;99.90;;;;;;7375226;19;20415;-62
2023/05/02 02:56:46;;;;;;;22.67;6.72;;;9.50;99.90;;;;;;7367352;19;20041;-62
2023/05/02 02:59:30;;;;;;;23.90;6.65;;;9.50;99.90;;;;;;7370937;19;20023;-62
2023/05/02 03:02:09;;;;;;;21.80;6.07;;;9.30;99.90;;;;;;7370377;19;20886;-62
2023/05/02 03:04:42;;;;;;;20.42;6.60;;;9.30;99.90;;;;;;7370410;19;20052;-62
2023/05/02 03:07:10;;;;;;;20.30;6.80;;;9.30;99.90;;;;;;7372299;19;20023;-60
2023/05/02 03:09:44;;;;;;;24.17;6.97;;;9.20;99.90;;;;;;7371066;19;20014;-60
2023/05/02 03:12:14;;;;;;;21.90;5.97;;;9.20;99.90;;;;;;7374044;19;20111;-60
2023/05/02 03:14:43;;;;;;;19.52;6.32;;;9.10;99.90;;;;;;7371657;19;20032;-62
2023/05/02 03:17:09;;;;;;;19.10;6.13;;;9.10;99.90;;;;;;7369114;19;20129;-62
2023/05/02 03:19:43;;;;;;;22.48;6.68;;;9.10;99.90;;;;;;7372374;19;20029;-60
2023/05/02 03:22:10;;;;;;;19.48;6.80;;;9.00;99.90;;;;;;7374610;19;20015;-61
2023/05/02 03:24:36;;;;;;;22.80;7.03;;;9.10;99.90;;;;;;7374083;19;20474;-60
2023/05/02 03:27:06;;;;;;;20.33;6.63;;;9.10;99.90;;;;;;7372809;19;20487;-60
2023/05/02 03:29:39;;;;;;;27.35;8.27;;;9.10;99.90;;;;;;7369563;19;20022;-60
2023/05/02 03:32:05;;;;;;;25.52;6.40;;;9.10;99.90;;;;;;7373538;19;20495;-60
2023/05/02 03:34:40;;;;;;;25.23;6.80;;;9.10;99.90;;;;;;7372268;19;20798;-60
2023/05/02 03:37:07;;;;;;;21.67;7.35;;;9.10;99.90;;;;;;7372580;19;20061;-61
2023/05/02 03:39:40;;;;;;;23.23;6.60;;;9.10;99.90;;;;;;7368523;19;20384;-62
2023/05/02 03:42:07;;;;;;;18.77;5.82;;;9.10;99.90;;;;;;7372551;19;20029;-62
2023/05/02 03:44:38;;;;;;;26.50;6.93;;;9.10;99.90;;;;;;7366510;19;20580;-62
2023/05/02 03:47:04;;;;;;;27.83;7.32;;;9.00;99.90;;;;;;7371838;19;20014;-62
2023/05/02 03:49:36;;;;;;;26.17;6.97;;;8.90;99.90;;;;;;7366335;19;20056;-60
2023/05/02 03:52:06;;;;;;;21.60;5.95;;;8.90;99.90;;;;;;7373159;19;20023;-61
2023/05/02 03:54:34;;;;;;;25.53;6.93;;;8.70;99.90;;;;;;7372132;19;20022;-60
2023/05/02 03:57:03;;;;;;;21.88;5.90;;;8.70;99.90;;;;;;7374420;19;20724;-61
2023/05/02 03:59:34;;;;;;;18.92;6.25;;;8.60;99.90;;;;;;7373441;19;20026;-60
2023/05/02 04:02:06;;;;;;;18.02;5.22;;;8.60;99.90;;;;;;7373306;19;20014;-60
2023/05/02 04:04:42;;;;;;;27.20;7.30;;;8.60;99.90;;;;;;7373536;19;20053;-62
2023/05/02 04:07:16;;;;;;;20.92;5.30;;;8.40;99.90;;;;;;7367569;19;20773;-62
2023/05/02 04:09:44;;;;;;;19.77;5.30;;;8.40;99.90;;;;;;7370426;19;20478;-62
2023/05/02 04:12:14;;;;;;;25.45;5.68;;;8.30;99.90;;;;;;7370990;19;20026;-62
2023/05/02 04:14:43;;;;;;;19.95;5.85;;;8.40;99.90;;;;;;7368493;19;20474;-62
2023/05/02 04:17:09;;;;;;;17.38;5.72;;;8.30;99.90;;;;;;7371333;19;20021;-62
2023/05/02 04:19:45;;;;;;;17.27;4.95;;;8.30;99.90;;;;;;7370856;19;20019;-62
2023/05/02 04:22:13;;;;;;;19.40;5.18;;;8.30;99.90;;;;;;7371765;19;20374;-61
2023/05/02 04:24:44;;;;;;;15.70;5.22;;;8.20;99.90;;;;;;7371370;19;20018;-60
2023/05/02 04:27:10;;;;;;;19.48;4.82;;;8.00;99.90;;;;;;7369980;19;20053;-60
2023/05/02 04:29:37;;;;;;;16.83;5.10;;;8.10;99.90;;;;;;7367975;19;20026;-60
2023/05/02 04:32:06;;;;;;;16.52;4.38;;;8.20;99.90;;;;;;7370074;19;20820;-60
2023/05/02 04:34:32;;;;;;;17.85;4.45;;;8.10;99.90;;;;;;7370844;19;20026;-60
2023/05/02 04:37:00;;;;;;;14.48;4.32;;;8.10;99.90;;;;;;7370398;19;20018;-60
2023/05/02 04:39:47;;;;;;;19.40;4.90;;;8.20;99.90;;;;;;7366097;19;20114;-62
2023/05/02 04:42:38;;;;;;;15.18;4.45;;;8.10;99.90;;;;;;7367726;19;20018;-62
2023/05/02 04:45:35;;;;;;;13.02;4.28;;;8.10;99.90;;;;;;7366109;19;20698;-62
2023/05/02 04:48:24;;;;;;;13.30;3.50;;;8.10;99.90;;;;;;7365419;19;20526;-62
2023/05/02 04:51:10;;;;;;;15.18;3.65;;;8.10;99.90;;;;;;7362126;19;20035;-62
2023/05/02 04:53:56;;;;;;;17.83;3.67;;;8.10;99.90;;;;;;7366597;19;20545;-62
2023/05/02 04:56:23;;;;;;;11.50;3.17;;;8.10;99.90;;;;;;7367260;19;20455;-62
2023/05/02 04:58:50;;;;;;;11.68;3.00;;;8.10;99.90;;;;;;7369767;19;20019;-62
2023/05/02 05:01:17;;;;;;;10.63;2.90;;;8.00;99.90;;;;;;7366230;19;20554;-62
2023/05/02 05:03:44;;;;;;;15.32;4.43;;;8.10;99.90;;;;;;7365660;19;20014;-62
2023/05/02 05:06:12;;;;;;;8.50;3.22;;;8.10;99.90;;;;;;7377403;19;20052;-62
2023/05/02 05:08:38;;;;;;;11.60;2.70;;;8.20;99.90;;;;;;7366644;19;20674;-62
2023/05/02 05:11:05;;;;;;;10.85;3.13;;;8.20;99.90;;;;;;7376804;19;20683;-62
2023/05/02 05:13:33;;;;;;;11.02;3.30;;;8.20;99.90;;;;;;7374028;19;20026;-62
2023/05/02 05:15:59;;;;;;;10.43;3.33;;;8.20;99.90;;;;;;7375452;19;20022;-62
2023/05/02 05:18:28;;;;;;;11.75;3.33;;;8.20;99.90;;;;;;7371606;19;20466;-62
2023/05/02 05:20:55;;;;;;;10.00;2.90;;;8.30;99.90;;;;;;7372925;19;20044;-62
2023/05/02 05:23:21;;;;;;;9.63;3.05;;;8.20;99.90;;;;;;7374930;19;20018;-63
2023/05/02 05:25:47;;;;;;;11.80;3.38;;;8.30;99.90;;;;;;7375127;19;21263;-62
2023/05/02 05:28:17;;;;;;;9.95;2.40;;;8.30;99.90;;;;;;7374739;19;20027;-62
2023/05/02 05:30:43;;;;;;;10.05;3.00;;;8.30;99.90;;;;;;7375457;19;20037;-62
2023/05/02 05:33:13;;;;;;;11.77;3.30;;;8.40;99.90;;;;;;7374252;19;20022;-62
2023/05/02 05:35:40;;;;;;;9.30;2.55;;;8.40;99.90;;;;;;7374213;19;20573;-62
2023/05/02 05:38:06;;;;;;;11.52;2.88;;;8.40;99.90;;;;;;7372161;19;20597;-61
2023/05/02 05:40:35;;;;;;;7.55;2.60;;;8.40;99.90;;;;;;7367431;19;20018;-62
2023/05/02 05:43:01;;;;;;;10.80;2.60;;;8.60;99.90;;;;;;7376458;19;20018;-61
2023/05/02 05:45:32;;;;;;;7.53;2.75;;;8.60;99.90;;;;;;7358963;19;20019;-61
2023/05/02 05:47:58;;;;;;;9.35;2.75;;;8.70;99.90;;;;;;7377984;19;20054;-61
2023/05/02 05:50:27;;;;;;;9.43;3.08;;;8.70;99.90;;;;;;7372612;19;20014;-62
2023/05/02 05:52:54;;;;;;;9.57;3.10;;;8.80;99.90;;;;;;7376925;19;20025;-60
2023/05/02 05:55:21;;;;;;;7.72;2.95;;;8.80;99.90;;;;;;7376044;19;20732;-60
2023/05/02 05:57:47;;;;;;;7.25;2.58;;;8.80;99.90;;;;;;7374437;19;20018;-61
2023/05/02 06:00:15;;;;;;;9.70;2.50;;;8.70;99.90;;;;;;7373622;19;20022;-60
2023/05/02 06:02:49;;;;;;;15.02;3.28;;;8.80;99.90;;;;;;7371668;19;20428;-59
2023/05/02 06:05:26;;;;;;;11.48;3.65;;;8.80;99.90;;;;;;7375884;19;20468;-59
2023/05/02 06:07:54;;;;;;;14.73;3.03;;;8.60;99.90;;;;;;7375157;19;20017;-63
2023/05/02 06:10:20;;;;;;;11.98;3.58;;;8.70;99.90;;;;;;7377889;19;20465;-59
2023/05/02 06:12:47;;;;;;;17.30;4.43;;;8.70;99.90;;;;;;7376227;19;20014;-59
2023/05/02 06:15:15;;;;;;;12.20;3.05;;;8.60;99.90;;;;;;7374223;19;20033;-61
2023/05/02 06:17:45;;;;;;;11.50;3.20;;;8.70;99.90;;;;;;7374545;19;20085;-61
2023/05/02 06:20:11;;;;;;;11.63;3.47;;;8.80;99.90;;;;;;7373710;19;20018;-61
2023/05/02 06:22:38;;;;;;;11.73;3.10;;;8.80;99.90;;;;;;7369616;19;20026;-62
2023/05/02 06:25:06;;;;;;;14.00;4.38;;;8.80;99.90;;;;;;7371556;19;20162;-62
2023/05/02 06:27:32;;;;;;;11.88;3.03;;;8.80;99.90;;;;;;7370008;19;20057;-62
2023/05/02 06:29:58;;;;;;;12.50;3.13;;;8.80;99.90;;;;;;7371485;19;20021;-62
2023/05/02 06:32:29;;;;;;;10.50;3.63;;;8.80;99.90;;;;;;7371443;19;20014;-61
2023/05/02 06:34:56;;;;;;;13.77;3.47;;;8.90;99.90;;;;;;7371232;19;20022;-62
2023/05/02 06:37:22;;;;;;;8.55;3.10;;;8.90;99.90;;;;;;7370049;19;20029;-62
2023/05/02 06:39:49;;;;;;;13.18;4.38;;;9.00;99.90;;;;;;7372659;19;20007;-60
2023/05/02 06:42:15;;;;;;;10.57;3.33;;;9.00;99.90;;;;;;7377919;19;20014;-60
2023/05/02 06:44:45;;;;;;;10.10;3.38;;;9.00;99.90;;;;;;7374476;19;20022;-60
2023/05/02 06:47:12;;;;;;;9.88;3.33;;;8.90;99.90;;;;;;7374297;19;20077;-60
2023/05/02 06:49:39;;;;;;;11.90;3.15;;;9.00;99.90;;;;;;7373924;19;20433;-60
2023/05/02 06:52:05;;;;;;;13.45;3.63;;;9.00;99.90;;;;;;7374786;19;20086;-60
2023/05/02 06:54:31;;;;;;;11.68;3.45;;;9.00;99.90;;;;;;7373718;19;20026;-60
2023/05/02 06:56:58;;;;;;;10.23;3.33;;;9.00;99.90;;;;;;7372152;19;20010;-61
2023/05/02 06:59:25;;;;;;;9.63;3.70;;;8.90;99.90;;;;;;7365496;19;20034;-60
2023/05/02 07:01:51;;;;;;;14.85;4.50;;;9.00;99.90;;;;;;7368141;19;20034;-60
2023/05/02 07:04:18;;;;;;;9.40;3.05;;;9.10;99.90;;;;;;7369784;19;20046;-59
2023/05/02 07:06:45;;;;;;;9.52;3.78;;;9.10;99.90;;;;;;7372053;19;20018;-61
2023/05/02 07:09:15;;;;;;;13.13;3.60;;;9.10;99.90;;;;;;7371270;19;20050;-61
2023/05/02 07:11:44;;;;;;;10.40;2.92;;;9.10;99.90;;;;;;7369597;19;20014;-61
2023/05/02 07:14:10;;;;;;;9.65;3.42;;;9.10;99.90;;;;;;7375477;19;20022;-60
2023/05/02 07:16:37;;;;;;;12.93;4.80;;;9.10;99.90;;;;;;7371714;19;20841;-60
2023/05/02 07:19:05;;;;;;;12.50;3.28;;;9.30;99.90;;;;;;7373593;19;20030;-60
2023/05/02 07:21:32;;;;;;;6.15;2.67;;;9.30;99.90;;;;;;7370966;19;20035;-60
2023/05/02 07:23:59;;;;;;;10.23;4.65;;;9.30;99.90;;;;;;7375662;19;20023;-59
2023/05/02 07:26:26;;;;;;;11.23;3.35;;;9.40;99.90;;;;;;7370835;19;20019;-60
2023/05/02 07:28:52;;;;;;;11.02;6.03;;;9.40;99.90;;;;;;7371141;19;20019;-60
2023/05/02 07:31:19;;;;;;;15.00;3.30;;;9.40;99.90;;;;;;7372031;19;20018;-63
2023/05/02 07:33:45;;;;;;;10.45;3.30;;;9.60;99.90;;;;;;7367500;19;20022;-61
2023/05/02 07:36:12;;;;;;;13.43;3.30;;;9.70;99.90;;;;;;7372790;19;20018;-62
2023/05/02 07:38:38;;;;;;;14.27;4.22;;;9.70;99.90;;;;;;7369188;19;20022;-61
2023/05/02 07:41:05;;;;;;;14.55;4.47;;;9.90;99.90;;;;;;7367618;19;20022;-61
2023/05/02 07:43:34;;;;;;;9.93;3.40;;;9.80;99.90;;;;;;7368686;19;20023;-61
2023/05/02 07:46:05;;;;;;;13.85;5.85;;;9.70;99.90;;;;;;7370483;19;20085;-60
2023/05/02 07:48:31;;;;;;;9.80;4.78;;;9.80;99.90;;;;;;7374609;19;20018;-60
2023/05/02 07:51:06;;;;;;;18.45;8.77;;;9.80;99.90;;;;;;7372770;19;20027;-61
2023/05/02 07:53:33;;;;;;;12.93;3.78;;;9.80;99.90;;;;;;7373110;19;20022;-61
2023/05/02 07:55:59;;;;;;;17.20;5.90;;;9.90;99.90;;;;;;7368601;19;20647;-60
2023/05/02 07:58:27;;;;;;;12.35;6.07;;;10.00;99.90;;;;;;7372127;19;20600;-61
2023/05/02 08:00:53;;;;;;;10.05;3.40;;;9.90;99.90;;;;;;7372028;19;20023;-62
2023/05/02 08:03:19;;;;;;;11.57;5.20;;;9.80;99.90;;;;;;7369333;19;20018;-60
2023/05/02 08:05:46;;;;;;;15.60;6.45;;;9.90;99.90;;;;;;7368326;19;20087;-61
2023/05/02 08:08:13;;;;;;;10.40;3.50;;;10.00;99.90;;;;;;7370421;19;20018;-61
2023/05/02 08:10:40;;;;;;;7.65;3.17;;;10.00;99.90;;;;;;7370075;19;20022;-62
2023/05/02 08:13:06;;;;;;;12.65;6.55;;;10.10;99.90;;;;;;7372462;19;20082;-62
2023/05/02 08:15:32;;;;;;;9.52;4.03;;;10.10;99.90;;;;;;7372548;19;20049;-60
2023/05/02 08:17:59;;;;;;;9.07;3.97;;;10.20;99.90;;;;;;7370772;19;20028;-60
2023/05/02 08:20:26;;;;;;;12.18;5.75;;;10.50;99.90;;;;;;7370541;19;20054;-60
2023/05/02 08:22:52;;;;;;;11.88;4.60;;;10.40;99.90;;;;;;7370879;19;20021;-61
2023/05/02 08:25:19;;;;;;;11.50;4.63;;;10.40;99.90;;;;;;7370186;19;20026;-60
2023/05/02 08:27:45;;;;;;;11.93;4.95;;;10.50;99.90;;;;;;7372939;19;20010;-61
2023/05/02 08:30:12;;;;;;;10.27;3.20;;;10.50;99.90;;;;;;7369580;19;20392;-61
2023/05/02 08:32:38;;;;;;;11.25;4.90;;;10.60;99.90;;;;;;7365799;19;20058;-61
2023/05/02 08:35:05;;;;;;;9.10;2.60;;;10.50;99.90;;;;;;7368869;19;20025;-61
2023/05/02 08:37:32;;;;;;;12.25;5.10;;;10.70;97.40;;;;;;7368195;19;20030;-61
2023/05/02 08:39:59;;;;;;;11.40;4.18;;;10.80;99.90;;;;;;7377181;19;20026;-61
2023/05/02 08:42:27;;;;;;;9.88;5.10;;;10.80;96.50;;;;;;7378660;19;20018;-61
2023/05/02 08:44:53;;;;;;;9.90;3.40;;;10.80;95.40;;;;;;7375975;19;20014;-60
2023/05/02 08:47:21;;;;;;;12.00;5.07;;;10.90;97.30;;;;;;7379655;19;20031;-60
2023/05/02 08:49:48;;;;;;;10.35;3.45;;;11.10;97.10;;;;;;7376264;19;20478;-60
2023/05/02 08:52:18;;;;;;;10.50;3.60;;;11.10;93.90;;;;;;7377356;19;20372;-62
2023/05/02 08:54:45;;;;;;;11.80;4.88;;;11.30;96.70;;;;;;7375974;19;20058;-62
2023/05/02 08:57:12;;;;;;;15.40;3.58;;;11.50;96.30;;;;;;7377307;19;20767;-62
2023/05/02 08:59:38;;;;;;;10.38;2.92;;;11.50;93.50;;;;;;7378184;19;20439;-61
2023/05/02 09:02:20;;;;;;;14.40;4.13;;;11.20;91.50;;;;;;7378683;19;21974;-60
2023/05/02 09:04:52;;;;;;;7.53;3.65;;;11.20;88.20;;;;;;7379522;19;20014;-61
2023/05/02 09:07:19;;;;;;;7.18;3.00;;;11.30;93.10;;;;;;7381351;19;20389;-61
2023/05/02 09:09:45;;;;;;;6.93;3.15;;;11.50;94.20;;;;;;7376322;19;20668;-60
2023/05/02 09:12:13;;;;;;;10.48;4.63;;;11.30;90.40;;;;;;7375257;19;20014;-60
2023/05/02 09:14:42;;;;;;;8.07;3.20;;;11.30;92.00;;;;;;7373879;19;20018;-62
2023/05/02 09:17:08;;;;;;;12.65;4.43;;;11.50;94.60;;;;;;7377012;19;20043;-61
2023/05/02 09:19:35;;;;;;;14.65;2.90;;;11.60;92.50;;;;;;7377057;19;20025;-61
2023/05/02 09:22:01;;;;;;;14.43;7.25;;;11.50;95.30;;;;;;7378455;19;20022;-61
2023/05/02 09:24:28;;;;;;;8.85;2.92;;;11.40;93.00;;;;;;7374844;19;20017;-62
2023/05/02 09:27:03;;;;;;;10.93;3.25;;;11.20;87.20;;;;;;7375860;19;20037;-62
2023/05/02 09:29:34;;;;;;;11.23;2.67;;;11.30;82.20;;;;;;7374280;19;20078;-61
2023/05/02 09:32:02;;;;;;;10.57;6.25;;;11.30;91.40;;;;;;7377629;19;20034;-62
2023/05/02 09:34:30;;;;;;;10.50;3.20;;;11.20;91.50;;;;;;7375257;19;20011;-61
2023/05/02 09:36:57;;;;;;;9.98;3.40;;;11.20;95.60;;;;;;7376985;19;20038;-61
2023/05/02 09:39:30;;;;;;;10.63;2.95;;;11.20;96.00;;;;;;7378668;19;20041;-60
2023/05/02 09:41:57;;;;;;;10.57;3.33;;;11.20;93.10;;;;;;7378875;19;20391;-61
2023/05/02 09:44:26;;;;;;;8.10;2.65;;;11.40;98.10;;;;;;7380648;19;20039;-61
2023/05/02 09:46:54;;;;;;;8.85;2.70;;;11.40;93.30;;;;;;7376747;19;20022;-61
2023/05/02 09:49:40;;;;;;;6.40;2.83;;;11.50;90.60;;;;;;7373608;19;20046;-60
2023/05/02 09:52:22;;;;;;;10.27;3.20;;;11.90;90.20;;;;;;7378523;19;20015;-60
2023/05/02 09:54:52;;;;;;;8.65;2.60;;;11.80;73.00;;;;;;7375514;19;20031;-61
2023/05/02 09:57:18;;;;;;;9.52;3.22;;;11.90;78.10;;;;;;7379531;19;20128;-61
2023/05/02 09:59:56;;;;;;;7.18;2.72;;;11.80;77.70;;;;;;7377657;19;20014;-62
2023/05/02 10:02:23;;;;;;;7.70;2.38;;;11.80;75.20;;;;;;7377324;19;20106;-62
2023/05/02 10:04:52;;;;;;;7.80;2.38;;;11.70;74.80;;;;;;7374580;19;20519;-62
2023/05/02 10:07:20;;;;;;;7.70;2.58;;;11.70;77.10;;;;;;7376839;19;20018;-60
2023/05/02 10:09:51;;;;;;;9.63;2.63;;;11.80;79.80;;;;;;7372911;19;20066;-60
2023/05/02 10:12:25;;;;;;;10.00;2.90;;;11.80;79.80;;;;;;7377009;19;20051;-60
2023/05/02 10:14:59;;;;;;;7.35;2.50;;;12.10;76.40;;;;;;7377951;19;20057;-60
2023/05/02 10:17:30;;;;;;;8.68;4.00;;;12.30;76.10;;;;;;7375861;19;20018;-60
2023/05/02 10:20:02;;;;;;;7.67;2.73;;;12.70;76.60;;;;;;7376215;19;20019;-60
2023/05/02 10:22:30;;;;;;;10.60;2.90;;;13.10;73.40;;;;;;7372230;19;20110;-61
2023/05/02 10:24:57;;;;;;;6.57;2.38;;;13.30;69.10;;;;;;7375666;19;20053;-61
2023/05/02 10:27:24;;;;;;;10.98;3.33;;;13.60;66.50;;;;;;7372704;19;20026;-60
2023/05/02 10:29:51;;;;;;;7.55;1.98;;;13.80;66.70;;;;;;7371867;19;20014;-60
2023/05/02 10:32:20;;;;;;;6.35;2.67;;;13.90;64.90;;;;;;7378066;19;20018;-61
2023/05/02 10:34:51;;;;;;;4.40;2.05;;;14.00;64.70;;;;;;7370052;19;20022;-61
2023/05/02 10:37:18;;;;;;;9.35;2.33;;;14.10;63.30;;;;;;7375190;19;20014;-62
2023/05/02 10:39:45;;;;;;;7.65;2.03;;;14.30;62.30;;;;;;7374574;19;20022;-62
2023/05/02 10:42:13;;;;;;;8.77;1.80;;;13.70;60.60;;;;;;7374172;19;20509;-61
2023/05/02 10:44:40;;;;;;;7.22;2.05;;;13.80;62.40;;;;;;7374225;19;20018;-62
2023/05/02 10:47:26;;;;;;;5.90;2.00;;;13.90;62.50;;;;;;7375625;19;20417;-59
2023/05/02 10:49:57;;;;;;;7.10;2.55;;;13.60;62.90;;;;;;7374356;19;20019;-60
2023/05/02 10:52:32;;;;;;;7.93;1.90;;;13.60;63.20;;;;;;7377391;19;20462;-60
2023/05/02 10:55:28;;;;;;;5.18;1.80;;;13.60;62.00;;;;;;7373992;19;20029;-60
2023/05/02 10:57:57;;;;;;;4.75;1.80;;;13.70;64.70;;;;;;7373551;19;20018;-60
2023/05/02 11:00:32;;;;;;;7.72;2.10;;;13.80;64.10;;;;;;7374799;19;20025;-60
2023/05/02 11:02:59;;;;;;;5.65;1.88;;;13.90;64.00;;;;;;7376785;19;20054;-60
2023/05/02 11:05:26;;;;;;;4.25;1.73;;;13.70;62.40;;;;;;7376878;19;20022;-62
2023/05/02 11:08:14;;;;;;;4.60;1.67;;;13.70;63.50;;;;;;7375140;19;20022;-62
2023/05/02 11:10:41;;;;;;;6.25;2.38;;;14.10;64.20;;;;;;7373018;19;20019;-62
2023/05/02 11:13:08;;;;;;;5.40;1.42;;;14.20;62.40;;;;;;7370607;19;20773;-62
2023/05/02 11:15:41;;;;;;;8.95;2.67;;;13.90;59.20;;;;;;7372087;19;20024;-62
2023/05/02 11:18:11;;;;;;;4.80;1.42;;;14.60;60.80;;;;;;7374176;19;20025;-62
2023/05/02 11:20:41;;;;;;;7.45;3.92;;;14.30;60.30;;;;;;7376193;19;20935;-62
2023/05/02 11:23:14;;;;;;;5.82;1.50;;;14.60;61.10;;;;;;7372813;19;20333;-62
2023/05/02 11:25:42;;;;;;;5.70;1.38;;;14.10;57.80;;;;;;7374689;19;20078;-62
2023/05/02 11:28:37;;;;;;;6.80;2.10;;;14.20;60.50;;;;;;7374822;19;20025;-62
2023/05/02 11:31:05;;;;;;;6.25;2.13;;;14.20;59.40;;;;;;7371864;19;20022;-62
2023/05/02 11:33:31;;;;;;;4.32;1.33;;;14.30;60.60;;;;;;7375972;19;20014;-62
2023/05/02 11:35:58;;;;;;;7.55;1.40;;;14.20;60.30;;;;;;7372106;19;20031;-62
2023/05/02 11:38:33;;;;;;;5.22;1.30;;;14.30;60.40;;;;;;7374688;19;20019;-62
2023/05/02 11:41:01;;;;;;;4.72;1.33;;;14.10;58.70;;;;;;7375048;19;20042;-61
2023/05/02 11:43:28;;;;;;;3.33;1.42;;;13.80;59.80;;;;;;7373692;19;20887;-61
2023/05/02 11:45:55;;;;;;;5.22;1.50;;;13.80;60.30;;;;;;7372375;19;20022;-61
2023/05/02 11:48:26;;;;;;;4.57;2.13;;;13.70;60.00;;;;;;7374143;19;20022;-60
2023/05/02 11:51:01;;;;;;;5.65;1.70;;;13.80;60.80;;;;;;7373729;19;20070;-62
2023/05/02 11:53:28;;;;;;;3.92;1.20;;;14.00;61.20;;;;;;7373033;19;20021;-62
2023/05/02 11:55:56;;;;;;;5.72;1.50;;;14.10;61.90;;;;;;7373188;19;20021;-60
2023/05/02 11:58:28;;;;;;;8.77;1.52;;;14.00;60.80;;;;;;7376285;19;20022;-60
2023/05/02 12:00:55;;;;;;;7.20;1.35;;;14.10;61.80;;;;;;7374876;19;20022;-62
2023/05/02 12:03:23;;;;;;;6.97;2.92;;;14.00;61.70;;;;;;7368639;19;20061;-61
2023/05/02 12:05:50;;;;;;;6.65;1.70;;;14.00;61.80;;;;;;7373864;19;20504;-62
2023/05/02 12:08:27;;;;;;;5.35;1.50;;;13.80;61.30;;;;;;7373714;19;20014;-62
2023/05/02 12:10:55;;;;;;;6.55;1.98;;;13.70;60.10;;;;;;7376004;19;20423;-62
2023/05/02 12:13:24;;;;;;;3.88;1.45;;;13.70;61.60;;;;;;7376258;19;20014;-62
2023/05/02 12:15:52;;;;;;;9.70;5.63;;;13.60;62.30;;;;;;7370634;19;20026;-61
2023/05/02 12:18:24;;;;;;;7.90;4.30;;;13.40;63.20;;;;;;7372337;19;20023;-61
2023/05/02 12:20:52;;;;;;;10.43;5.57;;;13.20;63.30;;;;;;7374558;19;20019;-62
2023/05/02 12:23:20;;;;;;;7.88;2.05;;;13.10;63.20;;;;;;7377901;19;20018;-61
2023/05/02 12:25:48;;;;;;;8.75;5.78;;;13.20;64.00;;;;;;7373302;19;20775;-61
2023/05/02 12:28:18;;;;;;;8.52;1.88;;;13.00;64.70;;;;;;7373090;19;20015;-61
2023/05/02 12:30:47;;;;;;;4.43;1.50;;;12.90;65.00;;;;;;7374070;19;20074;-62
2023/05/02 12:33:14;;;;;;;3.20;1.33;;;12.80;64.40;;;;;;7375515;19;20022;-62
2023/05/02 12:35:41;;;;;;;3.58;1.60;;;12.70;65.70;;;;;;7371866;19;20015;-62
2023/05/02 12:38:22;;;;;;;5.00;2.10;;;12.80;66.50;;;;;;7373517;19;20065;-62
2023/05/02 12:40:53;;;;;;;5.28;1.52;;;13.10;67.60;;;;;;7372804;19;20018;-62
2023/05/02 12:43:20;;;;;;;5.90;2.10;;;13.30;67.80;;;;;;7373391;19;20011;-62
2023/05/02 12:45:48;;;;;;;6.85;1.92;;;13.60;67.60;;;;;;7372133;19;20600;-62
2023/05/02 12:48:18;;;;;;;3.97;1.75;;;13.80;66.50;;;;;;7374139;19;20010;-61
2023/05/02 12:50:45;;;;;;;5.65;1.80;;;13.80;64.90;;;;;;7371088;19;20750;-62
2023/05/02 12:53:12;;;;;;;8.50;1.75;;;13.80;63.80;;;;;;7374258;19;20015;-62
2023/05/02 12:55:40;;;;;;;5.35;1.63;;;13.80;65.50;;;;;;7373636;19;20027;-60
2023/05/02 12:58:08;;;;;;;5.63;1.75;;;13.70;66.20;;;;;;7373013;19;20029;-60